EWG474 EDDK-EGKK
Flight info
| Callsign | EWG474 |
|---|---|
| Flight time | 1h 9m |
| Altitude | 32000 |
| Route | NVO2R NVO Y868 SOGRI L608 DENUT L610 TEBRA |
| Aircraft | A320/M-SDE3FGHIRWY/LB1 |
Departure
| Time | 2026-05-04 20:35 |
|---|---|
| Airport | Cologne Bonn Airport (EDDK) |
Arrival
| Time | 2026-05-04 21:45 |
|---|---|
| Airport | London Gatwick Airport (EGKK) |
| Time | Latitude | Longitude | Altitude | Speed | Heading |
|---|---|---|---|---|---|
| 2026-05-04 20:18 | 50.88151 | 7.11998 | 230 ft | 0 kts | 214° |
| 2026-05-04 20:21 | 50.88170 | 7.12016 | 229 ft | 3 kts | 197° |
| 2026-05-04 20:22 | 50.88189 | 7.12021 | 229 ft | 3 kts | 174° |
| 2026-05-04 20:22 | 50.88208 | 7.12015 | 230 ft | 3 kts | 151° |
| 2026-05-04 20:22 | 50.88223 | 7.11997 | 231 ft | 2 kts | 129° |
| 2026-05-04 20:22 | 50.88227 | 7.11991 | 231 ft | 0 kts | 127° |
| 2026-05-04 20:25 | 50.88222 | 7.12000 | 229 ft | 3 kts | 126° |
| 2026-05-04 20:26 | 50.88198 | 7.12055 | 230 ft | 9 kts | 125° |
| 2026-05-04 20:26 | 50.88151 | 7.12161 | 233 ft | 14 kts | 124° |
| 2026-05-04 20:26 | 50.88096 | 7.12312 | 238 ft | 16 kts | 114° |
| 2026-05-04 20:26 | 50.88030 | 7.12456 | 238 ft | 17 kts | 136° |
| 2026-05-04 20:27 | 50.87937 | 7.12586 | 239 ft | 18 kts | 147° |
| 2026-05-04 20:27 | 50.87811 | 7.12646 | 236 ft | 19 kts | 143° |
| 2026-05-04 20:27 | 50.87711 | 7.12783 | 239 ft | 19 kts | 137° |
| 2026-05-04 20:27 | 50.87617 | 7.12927 | 243 ft | 18 kts | 133° |
| 2026-05-04 20:28 | 50.87527 | 7.13063 | 245 ft | 18 kts | 136° |
| 2026-05-04 20:28 | 50.87430 | 7.13198 | 248 ft | 18 kts | 144° |
| 2026-05-04 20:28 | 50.87332 | 7.13329 | 247 ft | 19 kts | 139° |
| 2026-05-04 20:28 | 50.87236 | 7.13471 | 251 ft | 18 kts | 142° |
| 2026-05-04 20:29 | 50.87141 | 7.13605 | 254 ft | 18 kts | 137° |
| 2026-05-04 20:29 | 50.87055 | 7.13732 | 259 ft | 16 kts | 136° |
| 2026-05-04 20:29 | 50.86975 | 7.13856 | 263 ft | 16 kts | 138° |
| 2026-05-04 20:29 | 50.86892 | 7.13962 | 265 ft | 16 kts | 140° |
| 2026-05-04 20:30 | 50.86805 | 7.14081 | 264 ft | 17 kts | 137° |
| 2026-05-04 20:30 | 50.86703 | 7.14178 | 264 ft | 18 kts | 142° |
| 2026-05-04 20:30 | 50.86605 | 7.14319 | 265 ft | 19 kts | 135° |
| 2026-05-04 20:30 | 50.86507 | 7.14465 | 267 ft | 20 kts | 138° |
| 2026-05-04 20:31 | 50.86412 | 7.14603 | 272 ft | 18 kts | 137° |
| 2026-05-04 20:31 | 50.86321 | 7.14739 | 275 ft | 18 kts | 138° |
| 2026-05-04 20:31 | 50.86228 | 7.14863 | 277 ft | 18 kts | 139° |
| 2026-05-04 20:31 | 50.86134 | 7.14996 | 279 ft | 18 kts | 139° |
| 2026-05-04 20:32 | 50.86036 | 7.15126 | 281 ft | 19 kts | 136° |
| 2026-05-04 20:32 | 50.85941 | 7.15266 | 284 ft | 18 kts | 138° |
| 2026-05-04 20:32 | 50.85851 | 7.15405 | 286 ft | 18 kts | 135° |
| 2026-05-04 20:32 | 50.85765 | 7.15537 | 294 ft | 16 kts | 137° |
| 2026-05-04 20:33 | 50.85682 | 7.15662 | 296 ft | 17 kts | 135° |
| 2026-05-04 20:33 | 50.85599 | 7.15784 | 296 ft | 16 kts | 136° |
| 2026-05-04 20:33 | 50.85513 | 7.15910 | 297 ft | 17 kts | 138° |
| 2026-05-04 20:33 | 50.85517 | 7.16059 | 302 ft | 14 kts | 57° |
| 2026-05-04 20:34 | 50.85580 | 7.16192 | 304 ft | 15 kts | 51° |
| 2026-05-04 20:34 | 50.85660 | 7.16310 | 307 ft | 17 kts | 23° |
| 2026-05-04 20:34 | 50.85729 | 7.16266 | 304 ft | 0 kts | 320° |
| 2026-05-04 20:34 | 50.85766 | 7.16216 | 302 ft | 35 kts | 319° |
| 2026-05-04 20:35 | 50.86137 | 7.15675 | 288 ft | 107 kts | 317° |
| 2026-05-04 20:35 | 50.86823 | 7.14679 | 285 ft | 157 kts | 317° |
| 2026-05-04 20:35 | 50.87614 | 7.13472 | 869 ft | 158 kts | 317° |
| 2026-05-04 20:35 | 50.88431 | 7.12291 | 1509 ft | 161 kts | 317° |
| 2026-05-04 20:36 | 50.89315 | 7.11032 | 1865 ft | 181 kts | 317° |
| 2026-05-04 20:36 | 50.90278 | 7.09566 | 2133 ft | 203 kts | 307° |
| 2026-05-04 20:36 | 50.90947 | 7.07528 | 2570 ft | 214 kts | 283° |
| 2026-05-04 20:36 | 50.91057 | 7.05189 | 3258 ft | 213 kts | 259° |
| 2026-05-04 20:37 | 50.90667 | 7.02957 | 3928 ft | 221 kts | 249° |
| 2026-05-04 20:37 | 50.90151 | 7.00525 | 4354 ft | 245 kts | 249° |
| 2026-05-04 20:37 | 50.89586 | 6.97883 | 5022 ft | 258 kts | 249° |
| 2026-05-04 20:37 | 50.89007 | 6.95175 | 5920 ft | 261 kts | 249° |
| 2026-05-04 20:38 | 50.88424 | 6.92434 | 6794 ft | 265 kts | 249° |
| 2026-05-04 20:38 | 50.87831 | 6.89640 | 7665 ft | 268 kts | 249° |
| 2026-05-04 20:38 | 50.87234 | 6.86838 | 8537 ft | 271 kts | 249° |
| 2026-05-04 20:38 | 50.86630 | 6.84003 | 9391 ft | 274 kts | 249° |
| 2026-05-04 20:39 | 50.86014 | 6.81120 | 10208 ft | 279 kts | 249° |
| 2026-05-04 20:39 | 50.85362 | 6.78087 | 10510 ft | 303 kts | 249° |
| 2026-05-04 20:39 | 50.84654 | 6.74813 | 10768 ft | 325 kts | 249° |
| 2026-05-04 20:39 | 50.83912 | 6.71379 | 11321 ft | 335 kts | 249° |
| 2026-05-04 20:40 | 50.83157 | 6.67857 | 12028 ft | 340 kts | 249° |
| 2026-05-04 20:40 | 50.82479 | 6.64254 | 12738 ft | 345 kts | 257° |
| 2026-05-04 20:40 | 50.82299 | 6.60434 | 13451 ft | 352 kts | 269° |
| 2026-05-04 20:40 | 50.82358 | 6.56554 | 14128 ft | 356 kts | 269° |
| 2026-05-04 20:41 | 50.82412 | 6.52619 | 14774 ft | 359 kts | 269° |
| 2026-05-04 20:41 | 50.82463 | 6.48653 | 15414 ft | 362 kts | 269° |
| 2026-05-04 20:41 | 50.82513 | 6.44648 | 16042 ft | 366 kts | 269° |
| 2026-05-04 20:41 | 50.82561 | 6.40615 | 16670 ft | 369 kts | 269° |
| 2026-05-04 20:42 | 50.82609 | 6.36582 | 17289 ft | 372 kts | 269° |
| 2026-05-04 20:42 | 50.82659 | 6.32422 | 17902 ft | 376 kts | 268° |
| 2026-05-04 20:42 | 50.82704 | 6.28324 | 18460 ft | 379 kts | 268° |
| 2026-05-04 20:42 | 50.82749 | 6.24145 | 18994 ft | 382 kts | 268° |
| 2026-05-04 20:43 | 50.82792 | 6.19925 | 19519 ft | 384 kts | 268° |
| 2026-05-04 20:43 | 50.82834 | 6.15684 | 20038 ft | 387 kts | 268° |
| 2026-05-04 20:43 | 50.82871 | 6.11421 | 20537 ft | 390 kts | 268° |
| 2026-05-04 20:43 | 50.82905 | 6.07104 | 21052 ft | 393 kts | 268° |
| 2026-05-04 20:44 | 50.82939 | 6.02758 | 21547 ft | 396 kts | 268° |
| 2026-05-04 20:44 | 50.82940 | 5.98393 | 22030 ft | 398 kts | 266° |
| 2026-05-04 20:44 | 50.82874 | 5.94001 | 22513 ft | 401 kts | 265° |
| 2026-05-04 20:44 | 50.82767 | 5.89570 | 22990 ft | 404 kts | 265° |
| 2026-05-04 20:45 | 50.82644 | 5.85107 | 23454 ft | 407 kts | 265° |
| 2026-05-04 20:45 | 50.82522 | 5.80610 | 23846 ft | 410 kts | 265° |
| 2026-05-04 20:45 | 50.82405 | 5.76090 | 24254 ft | 412 kts | 265° |
| 2026-05-04 20:45 | 50.82294 | 5.71547 | 24670 ft | 414 kts | 265° |
| 2026-05-04 20:46 | 50.82188 | 5.66995 | 25073 ft | 415 kts | 265° |
| 2026-05-04 20:46 | 50.82087 | 5.62421 | 25471 ft | 417 kts | 265° |
| 2026-05-04 20:46 | 50.82042 | 5.57836 | 25848 ft | 420 kts | 271° |
| 2026-05-04 20:46 | 50.82627 | 5.53280 | 26227 ft | 428 kts | 285° |
| 2026-05-04 20:47 | 50.83604 | 5.48876 | 26599 ft | 431 kts | 286° |
| 2026-05-04 20:47 | 50.84614 | 5.44409 | 26979 ft | 432 kts | 286° |
| 2026-05-04 20:47 | 50.85644 | 5.39918 | 27351 ft | 434 kts | 287° |
| 2026-05-04 20:47 | 50.86678 | 5.35416 | 27722 ft | 436 kts | 286° |
| 2026-05-04 20:48 | 50.87712 | 5.30892 | 28086 ft | 438 kts | 286° |
| 2026-05-04 20:48 | 50.88746 | 5.26338 | 28426 ft | 440 kts | 286° |
| 2026-05-04 20:48 | 50.89778 | 5.21763 | 28752 ft | 442 kts | 286° |
| 2026-05-04 20:48 | 50.90808 | 5.17175 | 29076 ft | 443 kts | 286° |
| 2026-05-04 20:49 | 50.91846 | 5.12548 | 29396 ft | 445 kts | 286° |
| 2026-05-04 20:49 | 50.92883 | 5.07912 | 29706 ft | 447 kts | 286° |
| 2026-05-04 20:49 | 50.93926 | 5.03247 | 30011 ft | 449 kts | 286° |
| 2026-05-04 20:49 | 50.94957 | 4.98628 | 30276 ft | 450 kts | 286° |
| 2026-05-04 20:50 | 50.95999 | 4.93953 | 30640 ft | 449 kts | 286° |
| 2026-05-04 20:50 | 50.97040 | 4.89274 | 31009 ft | 448 kts | 286° |
| 2026-05-04 20:50 | 50.98074 | 4.84608 | 31368 ft | 447 kts | 286° |
| 2026-05-04 20:50 | 50.99103 | 4.79950 | 31731 ft | 446 kts | 286° |
| 2026-05-04 20:51 | 51.00125 | 4.75300 | 31940 ft | 446 kts | 286° |
| 2026-05-04 20:51 | 51.01140 | 4.70679 | 31974 ft | 442 kts | 286° |
| 2026-05-04 20:51 | 51.03163 | 4.61476 | 31974 ft | 440 kts | 286° |
| 2026-05-04 20:52 | 51.05168 | 4.52298 | 31987 ft | 440 kts | 286° |
| 2026-05-04 20:52 | 51.07161 | 4.43096 | 31977 ft | 440 kts | 286° |
| 2026-05-04 20:53 | 51.09142 | 4.33956 | 31974 ft | 440 kts | 287° |
| 2026-05-04 20:53 | 51.11129 | 4.24750 | 31971 ft | 439 kts | 287° |
| 2026-05-04 20:54 | 51.13107 | 4.15539 | 31967 ft | 439 kts | 287° |
| 2026-05-04 20:54 | 51.15067 | 4.06332 | 31960 ft | 439 kts | 287° |
| 2026-05-04 20:55 | 51.17024 | 3.97107 | 31957 ft | 439 kts | 287° |
| 2026-05-04 20:55 | 51.18972 | 3.87889 | 31954 ft | 439 kts | 287° |
| 2026-05-04 20:56 | 51.20919 | 3.78673 | 31957 ft | 439 kts | 287° |
| 2026-05-04 20:56 | 51.22840 | 3.69474 | 31958 ft | 439 kts | 287° |
| 2026-05-04 20:57 | 51.24375 | 3.60068 | 31962 ft | 438 kts | 280° |
| 2026-05-04 20:57 | 51.25642 | 3.50552 | 31968 ft | 438 kts | 280° |
| 2026-05-04 20:58 | 51.26905 | 3.41024 | 31979 ft | 438 kts | 280° |
| 2026-05-04 20:58 | 51.28148 | 3.31503 | 31992 ft | 438 kts | 279° |
| 2026-05-04 20:59 | 51.29366 | 3.21973 | 32002 ft | 438 kts | 279° |
| 2026-05-04 20:59 | 51.30568 | 3.12457 | 32010 ft | 437 kts | 279° |
| 2026-05-04 21:00 | 51.31768 | 3.02936 | 32016 ft | 437 kts | 279° |
| 2026-05-04 21:00 | 51.32963 | 2.93455 | 32014 ft | 437 kts | 279° |
| 2026-05-04 21:01 | 51.34152 | 2.83932 | 31915 ft | 438 kts | 279° |
| 2026-05-04 21:01 | 51.34742 | 2.79148 | 31661 ft | 438 kts | 279° |
| 2026-05-04 21:01 | 51.35331 | 2.74376 | 31179 ft | 436 kts | 279° |
| 2026-05-04 21:02 | 51.35918 | 2.69641 | 30529 ft | 433 kts | 278° |
| 2026-05-04 21:02 | 51.36504 | 2.64922 | 29863 ft | 431 kts | 278° |
| 2026-05-04 21:02 | 51.37083 | 2.60229 | 29210 ft | 428 kts | 278° |
| 2026-05-04 21:02 | 51.37652 | 2.55583 | 28597 ft | 424 kts | 278° |
| 2026-05-04 21:03 | 51.38216 | 2.50969 | 27992 ft | 420 kts | 279° |
| 2026-05-04 21:03 | 51.38770 | 2.46399 | 27387 ft | 416 kts | 278° |
| 2026-05-04 21:03 | 51.39315 | 2.41879 | 26807 ft | 412 kts | 279° |
| 2026-05-04 21:03 | 51.39858 | 2.37391 | 26212 ft | 409 kts | 279° |
| 2026-05-04 21:04 | 51.40213 | 2.34438 | 25832 ft | 407 kts | 279° |
| 2026-05-04 21:04 | 51.40745 | 2.30002 | 25253 ft | 404 kts | 279° |
| 2026-05-04 21:04 | 51.41272 | 2.25601 | 24686 ft | 400 kts | 279° |
| 2026-05-04 21:04 | 51.41795 | 2.21236 | 24125 ft | 397 kts | 279° |
| 2026-05-04 21:05 | 51.42312 | 2.16904 | 23591 ft | 394 kts | 279° |
| 2026-05-04 21:05 | 51.42822 | 2.12614 | 23010 ft | 391 kts | 279° |
| 2026-05-04 21:05 | 51.43324 | 2.08363 | 22520 ft | 385 kts | 279° |
| 2026-05-04 21:05 | 51.43818 | 2.04166 | 22051 ft | 380 kts | 280° |
| 2026-05-04 21:06 | 51.44301 | 2.00028 | 21618 ft | 375 kts | 279° |
| 2026-05-04 21:06 | 51.44788 | 1.95950 | 21171 ft | 371 kts | 280° |
| 2026-05-04 21:06 | 51.45286 | 1.91917 | 20734 ft | 367 kts | 280° |
| 2026-05-04 21:06 | 51.45789 | 1.87913 | 20290 ft | 364 kts | 280° |
| 2026-05-04 21:07 | 51.46283 | 1.83940 | 19850 ft | 361 kts | 280° |
| 2026-05-04 21:07 | 51.46747 | 1.80040 | 19398 ft | 359 kts | 279° |
| 2026-05-04 21:07 | 51.47202 | 1.76109 | 18949 ft | 358 kts | 279° |
| 2026-05-04 21:07 | 51.47649 | 1.72186 | 18480 ft | 357 kts | 279° |
| 2026-05-04 21:08 | 51.48095 | 1.68264 | 17971 ft | 356 kts | 279° |
| 2026-05-04 21:08 | 51.48445 | 1.64335 | 17481 ft | 354 kts | 272° |
| 2026-05-04 21:08 | 51.48359 | 1.60406 | 17013 ft | 351 kts | 262° |
| 2026-05-04 21:08 | 51.47830 | 1.56600 | 16534 ft | 349 kts | 251° |
| 2026-05-04 21:09 | 51.47000 | 1.52957 | 16055 ft | 348 kts | 249° |
| 2026-05-04 21:09 | 51.46168 | 1.49363 | 15582 ft | 347 kts | 249° |
| 2026-05-04 21:09 | 51.45330 | 1.45731 | 15116 ft | 347 kts | 249° |
| 2026-05-04 21:09 | 51.44485 | 1.42097 | 14636 ft | 347 kts | 247° |
| 2026-05-04 21:10 | 51.43351 | 1.38697 | 14164 ft | 346 kts | 235° |
| 2026-05-04 21:10 | 51.41797 | 1.35745 | 13865 ft | 351 kts | 223° |
| 2026-05-04 21:10 | 51.39888 | 1.33278 | 13688 ft | 355 kts | 216° |
| 2026-05-04 21:10 | 51.37893 | 1.30917 | 13498 ft | 355 kts | 216° |
| 2026-05-04 21:11 | 51.36070 | 1.28298 | 13237 ft | 354 kts | 231° |
| 2026-05-04 21:11 | 51.34680 | 1.25030 | 12972 ft | 353 kts | 237° |
| 2026-05-04 21:11 | 51.33374 | 1.21767 | 12712 ft | 351 kts | 237° |
| 2026-05-04 21:11 | 51.32067 | 1.18487 | 12458 ft | 350 kts | 237° |
| 2026-05-04 21:12 | 51.30763 | 1.15215 | 12199 ft | 348 kts | 237° |
| 2026-05-04 21:12 | 51.29464 | 1.11961 | 11944 ft | 346 kts | 237° |
| 2026-05-04 21:12 | 51.28170 | 1.08729 | 11692 ft | 344 kts | 237° |
| 2026-05-04 21:12 | 51.26883 | 1.05516 | 11438 ft | 343 kts | 237° |
| 2026-05-04 21:13 | 51.25601 | 1.02319 | 11189 ft | 341 kts | 237° |
| 2026-05-04 21:13 | 51.24322 | 0.99134 | 10940 ft | 340 kts | 237° |
| 2026-05-04 21:13 | 51.23047 | 0.95968 | 10695 ft | 338 kts | 237° |
| 2026-05-04 21:13 | 51.21772 | 0.92810 | 10446 ft | 337 kts | 237° |
| 2026-05-04 21:14 | 51.20506 | 0.89682 | 10212 ft | 336 kts | 237° |
| 2026-05-04 21:14 | 51.19249 | 0.86570 | 9968 ft | 331 kts | 237° |
| 2026-05-04 21:14 | 51.18024 | 0.83536 | 9836 ft | 318 kts | 237° |
| 2026-05-04 21:14 | 51.16850 | 0.80635 | 9698 ft | 306 kts | 237° |
| 2026-05-04 21:15 | 51.15716 | 0.77839 | 9572 ft | 295 kts | 237° |
| 2026-05-04 21:15 | 51.14617 | 0.75131 | 9418 ft | 289 kts | 237° |
| 2026-05-04 21:15 | 51.13524 | 0.72443 | 9299 ft | 288 kts | 237° |
| 2026-05-04 21:15 | 51.12444 | 0.69789 | 9179 ft | 281 kts | 237° |
| 2026-05-04 21:16 | 51.11402 | 0.67230 | 9042 ft | 270 kts | 237° |
| 2026-05-04 21:16 | 51.10411 | 0.64797 | 8918 ft | 260 kts | 237° |
| 2026-05-04 21:16 | 51.09441 | 0.62422 | 8783 ft | 251 kts | 237° |
| 2026-05-04 21:16 | 51.08504 | 0.60133 | 8650 ft | 245 kts | 237° |
| 2026-05-04 21:17 | 51.07579 | 0.57873 | 8525 ft | 243 kts | 237° |
| 2026-05-04 21:17 | 51.06654 | 0.55613 | 8394 ft | 243 kts | 237° |
| 2026-05-04 21:17 | 51.05733 | 0.53363 | 8266 ft | 242 kts | 237° |
| 2026-05-04 21:17 | 51.04815 | 0.51118 | 8139 ft | 242 kts | 237° |
| 2026-05-04 21:18 | 51.03895 | 0.48875 | 8012 ft | 242 kts | 237° |
| 2026-05-04 21:18 | 51.02980 | 0.46639 | 7881 ft | 241 kts | 237° |
| 2026-05-04 21:18 | 51.02069 | 0.44415 | 7764 ft | 238 kts | 237° |
| 2026-05-04 21:18 | 51.01179 | 0.42250 | 7626 ft | 230 kts | 237° |
| 2026-05-04 21:19 | 51.00315 | 0.40151 | 7508 ft | 224 kts | 237° |
| 2026-05-04 21:19 | 50.99475 | 0.38113 | 7380 ft | 218 kts | 237° |
| 2026-05-04 21:19 | 50.98662 | 0.36142 | 7251 ft | 215 kts | 237° |
| 2026-05-04 21:19 | 50.97845 | 0.34161 | 7142 ft | 215 kts | 237° |
| 2026-05-04 21:20 | 50.97028 | 0.32180 | 7015 ft | 214 kts | 237° |
| 2026-05-04 21:20 | 50.96235 | 0.30259 | 6935 ft | 201 kts | 237° |
| 2026-05-04 21:20 | 50.95570 | 0.28458 | 7009 ft | 179 kts | 247° |
| 2026-05-04 21:20 | 50.95216 | 0.26653 | 7023 ft | 167 kts | 261° |
| 2026-05-04 21:21 | 50.95130 | 0.24836 | 6975 ft | 166 kts | 274° |
| 2026-05-04 21:21 | 50.95303 | 0.23051 | 6855 ft | 163 kts | 287° |
| 2026-05-04 21:21 | 50.95682 | 0.21359 | 6749 ft | 163 kts | 291° |
| 2026-05-04 21:21 | 50.96078 | 0.19685 | 6638 ft | 162 kts | 291° |
| 2026-05-04 21:22 | 50.96472 | 0.18011 | 6532 ft | 162 kts | 291° |
| 2026-05-04 21:22 | 50.96864 | 0.16344 | 6418 ft | 161 kts | 291° |
| 2026-05-04 21:22 | 50.97255 | 0.14673 | 6306 ft | 161 kts | 291° |
| 2026-05-04 21:22 | 50.97645 | 0.13009 | 6189 ft | 160 kts | 291° |
| 2026-05-04 21:23 | 50.98030 | 0.11364 | 6104 ft | 160 kts | 291° |
| 2026-05-04 21:23 | 50.98420 | 0.09703 | 6030 ft | 160 kts | 291° |
| 2026-05-04 21:23 | 50.98805 | 0.08058 | 6014 ft | 159 kts | 291° |
| 2026-05-04 21:23 | 50.99191 | 0.06406 | 6010 ft | 160 kts | 291° |
| 2026-05-04 21:24 | 50.99575 | 0.04753 | 6012 ft | 160 kts | 292° |
| 2026-05-04 21:24 | 50.99960 | 0.03104 | 6010 ft | 160 kts | 291° |
| 2026-05-04 21:24 | 51.00346 | 0.01450 | 6012 ft | 159 kts | 291° |
| 2026-05-04 21:24 | 51.00729 | -0.00199 | 6008 ft | 159 kts | 292° |
| 2026-05-04 21:25 | 51.01113 | -0.01855 | 6012 ft | 160 kts | 292° |
| 2026-05-04 21:25 | 51.01497 | -0.03508 | 6016 ft | 160 kts | 291° |
| 2026-05-04 21:25 | 51.01880 | -0.05159 | 6024 ft | 156 kts | 291° |
| 2026-05-04 21:25 | 51.02249 | -0.06754 | 5950 ft | 154 kts | 291° |
| 2026-05-04 21:26 | 51.02627 | -0.08377 | 5510 ft | 160 kts | 291° |
| 2026-05-04 21:26 | 51.03019 | -0.10067 | 5085 ft | 165 kts | 291° |
| 2026-05-04 21:26 | 51.03413 | -0.11770 | 4724 ft | 163 kts | 292° |
| 2026-05-04 21:26 | 51.03794 | -0.13426 | 4522 ft | 154 kts | 292° |
| 2026-05-04 21:27 | 51.04153 | -0.14986 | 4391 ft | 150 kts | 292° |
| 2026-05-04 21:27 | 51.04512 | -0.16541 | 4280 ft | 150 kts | 293° |
| 2026-05-04 21:27 | 51.04856 | -0.18105 | 4179 ft | 150 kts | 285° |
| 2026-05-04 21:27 | 51.04890 | -0.19772 | 4071 ft | 152 kts | 265° |
| 2026-05-04 21:28 | 51.04732 | -0.21535 | 3992 ft | 171 kts | 262° |
| 2026-05-04 21:28 | 51.04525 | -0.23441 | 3894 ft | 174 kts | 261° |
| 2026-05-04 21:28 | 51.04313 | -0.25335 | 3800 ft | 174 kts | 261° |
| 2026-05-04 21:28 | 51.04102 | -0.27203 | 3684 ft | 174 kts | 261° |
| 2026-05-04 21:29 | 51.03890 | -0.29103 | 3587 ft | 174 kts | 261° |
| 2026-05-04 21:29 | 51.03743 | -0.30386 | 3505 ft | 174 kts | 261° |
| 2026-05-04 21:29 | 51.03533 | -0.32252 | 3407 ft | 174 kts | 261° |
| 2026-05-04 21:29 | 51.03321 | -0.34154 | 3299 ft | 175 kts | 261° |
| 2026-05-04 21:30 | 51.03111 | -0.36055 | 3205 ft | 175 kts | 261° |
| 2026-05-04 21:30 | 51.02905 | -0.38000 | 3121 ft | 190 kts | 261° |
| 2026-05-04 21:30 | 51.02684 | -0.40113 | 3028 ft | 191 kts | 261° |
| 2026-05-04 21:30 | 51.02537 | -0.42176 | 2997 ft | 186 kts | 276° |
| 2026-05-04 21:31 | 51.04087 | -0.45128 | 3011 ft | 179 kts | 329° |
| 2026-05-04 21:31 | 51.05147 | -0.46164 | 3008 ft | 178 kts | 331° |
| 2026-05-04 21:31 | 51.06240 | -0.47067 | 3006 ft | 176 kts | 348° |
| 2026-05-04 21:32 | 51.07405 | -0.46828 | 3002 ft | 171 kts | 31° |
| 2026-05-04 21:32 | 51.08275 | -0.45576 | 3009 ft | 170 kts | 49° |
| 2026-05-04 21:32 | 51.09034 | -0.44170 | 3010 ft | 169 kts | 51° |
| 2026-05-04 21:32 | 51.09781 | -0.42727 | 3009 ft | 169 kts | 51° |
| 2026-05-04 21:33 | 51.10527 | -0.41275 | 3018 ft | 169 kts | 51° |
| 2026-05-04 21:33 | 51.11269 | -0.39827 | 3013 ft | 166 kts | 51° |
| 2026-05-04 21:33 | 51.11980 | -0.38415 | 3012 ft | 161 kts | 55° |
| 2026-05-04 21:33 | 51.12345 | -0.36758 | 3017 ft | 160 kts | 77° |
| 2026-05-04 21:34 | 51.12587 | -0.35028 | 3011 ft | 160 kts | 76° |
| 2026-05-04 21:34 | 51.12830 | -0.33302 | 3008 ft | 159 kts | 76° |
| 2026-05-04 21:34 | 51.13072 | -0.31575 | 3004 ft | 160 kts | 76° |
| 2026-05-04 21:34 | 51.13312 | -0.29844 | 2902 ft | 161 kts | 77° |
| 2026-05-04 21:35 | 51.13549 | -0.28010 | 2083 ft | 184 kts | 78° |
| 2026-05-04 21:35 | 51.13798 | -0.25869 | 1149 ft | 198 kts | 77° |
| 2026-05-04 21:35 | 51.14056 | -0.23842 | 894 ft | 175 kts | 80° |
| 2026-05-04 21:35 | 51.14248 | -0.21923 | 903 ft | 182 kts | 81° |
| 2026-05-04 21:36 | 51.14431 | -0.20016 | 1806 ft | 165 kts | 81° |
| 2026-05-04 21:36 | 51.14589 | -0.18194 | 2299 ft | 171 kts | 81° |
| 2026-05-04 21:36 | 51.14539 | -0.16288 | 2494 ft | 178 kts | 104° |
| 2026-05-04 21:36 | 51.14012 | -0.14443 | 2988 ft | 188 kts | 119° |
| 2026-05-04 21:37 | 51.13204 | -0.12733 | 3466 ft | 201 kts | 130° |
| 2026-05-04 21:37 | 51.11986 | -0.11499 | 3405 ft | 217 kts | 163° |
| 2026-05-04 21:37 | 51.10481 | -0.11548 | 3060 ft | 221 kts | 201° |
| 2026-05-04 21:37 | 51.09270 | -0.13002 | 3006 ft | 224 kts | 237° |
| 2026-05-04 21:38 | 51.08689 | -0.15299 | 3007 ft | 226 kts | 257° |
| 2026-05-04 21:38 | 51.08365 | -0.17764 | 3012 ft | 228 kts | 261° |
| 2026-05-04 21:38 | 51.08079 | -0.20238 | 3008 ft | 228 kts | 261° |
| 2026-05-04 21:38 | 51.07805 | -0.22718 | 3012 ft | 228 kts | 261° |
| 2026-05-04 21:39 | 51.07535 | -0.25195 | 3010 ft | 226 kts | 261° |
| 2026-05-04 21:39 | 51.07266 | -0.27657 | 3003 ft | 226 kts | 261° |
| 2026-05-04 21:39 | 51.06997 | -0.30124 | 3011 ft | 226 kts | 261° |
| 2026-05-04 21:39 | 51.06730 | -0.32595 | 3006 ft | 227 kts | 261° |
| 2026-05-04 21:40 | 51.06466 | -0.35033 | 3014 ft | 227 kts | 261° |
| 2026-05-04 21:40 | 51.06201 | -0.37501 | 3004 ft | 226 kts | 261° |
| 2026-05-04 21:40 | 51.05935 | -0.39973 | 3015 ft | 227 kts | 261° |
| 2026-05-04 21:40 | 51.05908 | -0.42456 | 3007 ft | 225 kts | 287° |
| 2026-05-04 21:41 | 51.06692 | -0.44538 | 3012 ft | 220 kts | 322° |
| 2026-05-04 21:41 | 51.08034 | -0.45604 | 3014 ft | 216 kts | 352° |
| 2026-05-04 21:41 | 51.09512 | -0.45525 | 3012 ft | 213 kts | 19° |
| 2026-05-04 21:41 | 51.10772 | -0.44377 | 3008 ft | 210 kts | 46° |
| 2026-05-04 21:42 | 51.11547 | -0.42428 | 2918 ft | 210 kts | 73° |
| 2026-05-04 21:42 | 51.11883 | -0.40165 | 2695 ft | 210 kts | 77° |
| 2026-05-04 21:42 | 51.12191 | -0.37903 | 2426 ft | 208 kts | 77° |
| 2026-05-04 21:42 | 51.12500 | -0.35668 | 2146 ft | 203 kts | 77° |
| 2026-05-04 21:43 | 51.12793 | -0.33569 | 1888 ft | 191 kts | 77° |
| 2026-05-04 21:43 | 51.13068 | -0.31596 | 1651 ft | 176 kts | 77° |
| 2026-05-04 21:43 | 51.13326 | -0.29746 | 1385 ft | 164 kts | 77° |
| 2026-05-04 21:43 | 51.13569 | -0.28003 | 1200 ft | 165 kts | 77° |
| 2026-05-04 21:44 | 51.13821 | -0.26191 | 946 ft | 168 kts | 77° |
| 2026-05-04 21:44 | 51.14060 | -0.24474 | 709 ft | 150 kts | 77° |
| 2026-05-04 21:44 | 51.14273 | -0.22936 | 523 ft | 136 kts | 78° |
| 2026-05-04 21:44 | 51.14474 | -0.21491 | 348 ft | 132 kts | 78° |
| 2026-05-04 21:45 | 51.14668 | -0.20068 | 220 ft | 130 kts | 78° |
| 2026-05-04 21:45 | 51.14836 | -0.18851 | 202 ft | 84 kts | 77° |
| 2026-05-04 21:45 | 51.14923 | -0.18229 | 202 ft | 35 kts | 77° |
| 2026-05-04 21:45 | 51.14995 | -0.17927 | 207 ft | 28 kts | 60° |
| 2026-05-04 21:46 | 51.15129 | -0.17760 | 203 ft | 22 kts | 355° |
| 2026-05-04 21:46 | 51.15255 | -0.17736 | 208 ft | 19 kts | 57° |
| 2026-05-04 21:46 | 51.15274 | -0.17642 | 201 ft | 0 kts | 78° |
| 2026-05-04 21:47 | 51.15276 | -0.17621 | 204 ft | 6 kts | 78° |
| 2026-05-04 21:47 | 51.15292 | -0.17495 | 206 ft | 16 kts | 81° |
| 2026-05-04 21:47 | 51.15354 | -0.17345 | 206 ft | 14 kts | 56° |
| 2026-05-04 21:47 | 51.15454 | -0.17278 | 200 ft | 22 kts | 349° |
| 2026-05-04 21:48 | 51.15599 | -0.17297 | 206 ft | 13 kts | 39° |
| 2026-05-04 21:48 | 51.15621 | -0.17187 | 206 ft | 11 kts | 73° |
| 2026-05-04 21:48 | 51.15640 | -0.17061 | 200 ft | 13 kts | 77° |
| 2026-05-04 21:48 | 51.15659 | -0.16913 | 200 ft | 15 kts | 78° |
| 2026-05-04 21:49 | 51.15681 | -0.16748 | 205 ft | 16 kts | 78° |
| 2026-05-04 21:49 | 51.15685 | -0.16618 | 207 ft | 8 kts | 125° |
| 2026-05-04 21:49 | 51.15637 | -0.16591 | 202 ft | 7 kts | 168° |
| 2026-05-04 21:49 | 51.15626 | -0.16587 | 200 ft | 1 kts | 168° |
| 2026-05-04 21:50 | 51.15624 | -0.16586 | 200 ft | 0 kts | 168° |
| 2026-05-04 21:50 | 51.15621 | -0.16585 | 200 ft | 0 kts | 168° |
| 2026-05-04 21:50 | 51.15620 | -0.16585 | 200 ft | 0 kts | 168° |